Time;durP1;ratioP1;P1;durP2;ratioP2;P2;SDS_P1;SDS_P2;PMS_P1;PMS_P2;Temp;Humidity;BMP_temperature;BMP_pressure;BME280_temperature;BME280_humidity;BME280_pressure;Samples;Min_cycle;Max_cycle;Signal;HPM_P1;HPM_P2
2022/03/22 00:00:55;;;;;;;9.65;3.55;;;;;;;1.36;51.05;100129.53;5092674;28;20046;-84
2022/03/22 00:03:26;;;;;;;8.27;4.25;;;;;;;0.60;51.05;100020.03;5093238;28;20057;-83
2022/03/22 00:06:00;;;;;;;11.88;4.22;;;;;;;2.01;50.60;100127.22;5092449;28;20336;-83
2022/03/22 00:08:32;;;;;;;9.73;5.15;;;;;;;1.94;51.39;100125.41;5089451;28;20059;-82
2022/03/22 00:11:03;;;;;;;9.20;3.67;;;;;;;1.32;50.64;100059.09;5093363;28;20068;-81
2022/03/22 00:13:34;;;;;;;12.23;4.15;;;;;;;1.33;50.86;100083.16;5094694;28;20116;-82
2022/03/22 00:16:07;;;;;;;6.05;3.97;;;;;;;1.43;51.14;100100.50;5094690;28;20064;-82
2022/03/22 00:18:58;;;;;;;11.93;3.90;;;;;;;0.85;51.63;99959.66;5095274;28;20036;-83
2022/03/22 00:21:30;;;;;;;10.70;4.40;;;;;;;1.86;50.80;100116.69;5098937;28;20051;-84
2022/03/22 00:24:02;;;;;;;14.30;5.68;;;;;;;2.11;50.63;100098.19;5092804;28;20083;-83
2022/03/22 00:26:33;;;;;;;10.23;4.35;;;;;;;2.40;49.36;100095.19;5093777;28;20070;-83
2022/03/22 00:29:04;;;;;;;10.07;4.25;;;;;;;2.50;49.62;100091.88;5094657;28;20040;-84
2022/03/22 00:31:35;;;;;;;11.27;6.13;;;;;;;2.41;49.61;100096.03;5094510;28;20059;-84
2022/03/22 00:34:05;;;;;;;9.40;4.95;;;;;;;2.22;50.36;100100.03;5092070;28;20205;-83
2022/03/22 00:36:36;;;;;;;12.27;4.97;;;;;;;1.94;51.00;100113.38;5092556;28;20478;-82
2022/03/22 00:39:08;;;;;;;7.95;3.85;;;;;;;1.46;51.87;100118.56;5094466;28;20048;-80
2022/03/22 00:41:48;;;;;;;8.40;4.43;;;;;;;0.82;54.47;100080.50;5092036;28;20083;-83
2022/03/22 00:48:35;;;;;;;14.23;5.30;;;;;;;1.44;59.14;100127.97;5068167;28;20040;-85
2022/03/22 00:51:09;;;;;;;11.13;6.28;;;;;;;1.31;59.69;100126.00;5090988;28;20075;-87
2022/03/22 00:53:45;;;;;;;9.10;4.95;;;;;;;1.05;60.00;100103.22;5090661;28;20100;-87
2022/03/22 00:56:18;;;;;;;10.40;5.82;;;;;;;0.62;60.81;100023.50;5093513;28;20041;-85
2022/03/22 01:00:01;;;;;;;13.15;6.55;;;;;;;1.47;59.58;100112.56;5092331;28;20104;-85
2022/03/22 01:01:42;;;;;;;14.68;5.38;;;;;;;1.11;57.70;100051.88;5091403;28;20413;-84
2022/03/22 01:04:14;;;;;;;7.35;4.40;;;;;;;0.88;59.65;100096.88;5089884;28;20379;-85
2022/03/22 01:06:46;;;;;;;10.48;4.45;;;;;;;0.03;62.30;100047.94;5093306;28;20070;-82
2022/03/22 01:09:20;;;;;;;7.97;4.65;;;;;;;0.48;63.70;100104.63;5098883;28;20432;-82
2022/03/22 01:11:52;;;;;;;8.18;4.53;;;;;;;0.43;63.37;100076.25;5087478;28;20054;-83
2022/03/22 01:14:25;;;;;;;11.25;5.07;;;;;;;0.61;62.92;100064.59;5094003;28;20041;-82
2022/03/22 01:16:57;;;;;;;9.40;4.70;;;;;;;0.41;63.24;100041.91;5098497;28;20414;-82
2022/03/22 01:19:31;;;;;;;12.00;4.45;;;;;;;0.66;62.32;100088.72;5097025;28;20051;-81
2022/03/22 01:22:02;;;;;;;9.75;5.18;;;;;;;0.91;62.36;100078.94;5097526;28;20043;-82
2022/03/22 01:24:32;;;;;;;11.90;4.15;;;;;;;1.02;58.70;100077.41;5094792;28;20058;-82
2022/03/22 01:27:05;;;;;;;7.38;4.35;;;;;;;1.21;59.36;100069.22;5090330;28;20059;-82
2022/03/22 01:29:37;;;;;;;11.63;4.90;;;;;;;1.69;56.96;100068.31;5096581;28;20069;-82
2022/03/22 01:32:09;;;;;;;10.65;5.05;;;;;;;2.13;54.55;100060.41;5088553;28;20040;-82
2022/03/22 01:34:40;;;;;;;13.27;4.15;;;;;;;2.15;52.52;100017.47;5091530;28;20071;-80
2022/03/22 01:37:11;;;;;;;8.43;4.50;;;;;;;2.76;51.73;100042.31;5090540;28;20051;-81
2022/03/22 01:39:42;;;;;;;12.02;4.90;;;;;;;3.12;50.63;100030.66;5092282;28;20236;-80
2022/03/22 01:42:14;;;;;;;8.02;3.95;;;;;;;3.56;48.92;100032.78;5090502;28;20154;-82
2022/03/22 01:44:45;;;;;;;9.93;4.57;;;;;;;3.63;47.90;99988.06;5089094;28;20044;-82
2022/03/22 01:47:18;;;;;;;8.63;4.15;;;;;;;4.14;46.33;100020.25;5090107;28;20041;-82
2022/03/22 01:49:50;;;;;;;7.35;3.83;;;;;;;4.21;44.54;100009.09;5089745;28;20055;-82
2022/03/22 01:52:23;;;;;;;6.00;3.40;;;;;;;3.98;39.93;100015.88;5091947;28;20050;-82
2022/03/22 01:54:55;;;;;;;7.75;3.60;;;;;;;3.75;40.47;100002.81;5092297;28;20111;-82
2022/03/22 01:57:30;;;;;;;8.82;3.58;;;;;;;3.75;41.55;100014.00;5089472;28;20049;-82
2022/03/22 02:00:01;;;;;;;6.95;3.67;;;;;;;3.51;41.07;100018.97;5090170;28;20049;-81
2022/03/22 02:08:10;;;;;;;8.45;5.03;;;;;;;3.37;43.19;100022.31;5096921;28;20051;-82
2022/03/22 02:10:44;;;;;;;13.32;6.40;;;;;;;3.60;43.00;100019.06;5103488;28;20078;-80
2022/03/22 02:13:18;;;;;;;8.95;3.97;;;;;;;4.07;42.72;100010.78;5089459;28;20079;-81
2022/03/22 02:15:52;;;;;;;14.00;3.90;;;;;;;3.82;42.53;99974.41;5099817;28;20101;-81
2022/03/22 02:18:24;;;;;;;5.53;3.38;;;;;;;4.18;42.26;100008.22;5115429;28;20054;-81
2022/03/22 02:20:56;;;;;;;10.07;3.35;;;;;;;4.23;41.44;99999.63;5112664;28;20028;-82
2022/03/22 02:23:50;;;;;;;9.10;3.83;;;;;;;4.25;41.44;100000.50;5117480;28;20036;-81
2022/03/22 02:26:21;;;;;;;8.98;3.40;;;;;;;4.22;39.13;100000.50;5100127;28;20096;-81
2022/03/22 02:28:53;;;;;;;7.25;3.22;;;;;;;4.03;39.78;99999.53;5099099;28;20047;-82
2022/03/22 02:31:25;;;;;;;8.13;3.20;;;;;;;3.85;40.16;99997.69;5104445;28;20067;-82
2022/03/22 02:33:57;;;;;;;7.00;3.80;;;;;;;3.73;41.38;99997.59;5101938;28;20050;-82
2022/03/22 02:36:28;;;;;;;8.55;3.17;;;;;;;3.59;41.61;100002.66;5103338;28;20191;-83
2022/03/22 02:39:01;;;;;;;5.68;3.20;;;;;;;3.47;39.67;100007.75;5100544;28;20041;-83
2022/03/22 02:41:34;;;;;;;6.80;3.75;;;;;;;3.48;41.24;99931.13;5107961;28;20052;-83
2022/03/22 02:44:10;;;;;;;9.45;3.45;;;;;;;4.14;40.32;99993.53;5095380;28;20048;-83
2022/03/22 02:46:41;;;;;;;8.63;3.88;;;;;;;4.50;39.49;99985.97;5092860;28;20519;-83
2022/03/22 02:49:12;;;;;;;11.02;3.78;;;;;;;4.54;39.77;99997.16;5090459;28;20043;-84
2022/03/22 02:51:43;;;;;;;11.00;4.13;;;;;;;4.37;39.30;99947.09;5090781;28;20047;-82
2022/03/22 02:54:16;;;;;;;9.23;3.60;;;;;;;4.64;40.29;99993.78;5092560;28;20081;-82
2022/03/22 02:56:47;;;;;;;9.00;3.72;;;;;;;4.69;40.05;100002.44;5091233;28;20040;-83
2022/03/22 02:59:20;;;;;;;8.20;3.20;;;;;;;4.47;40.27;99985.09;5093600;28;20097;-83
2022/03/22 03:01:51;;;;;;;8.32;4.50;;;;;;;4.32;40.25;99960.88;5088400;28;20100;-83
2022/03/22 03:04:22;;;;;;;7.75;3.72;;;;;;;4.07;39.73;99959.06;5095646;28;20060;-82
2022/03/22 03:06:53;;;;;;;10.90;3.55;;;;;;;3.85;38.93;99958.91;5093978;28;20056;-83
2022/03/22 03:09:25;;;;;;;8.07;3.78;;;;;;;4.23;39.95;99966.00;5096366;28;20052;-83
2022/03/22 03:11:56;;;;;;;7.78;3.60;;;;;;;4.56;40.03;99958.38;5095423;28;20261;-83
2022/03/22 03:14:43;;;;;;;8.65;3.67;;;;;;;4.96;40.10;99969.69;5093997;28;20124;-82
2022/03/22 03:17:14;;;;;;;9.45;3.38;;;;;;;3.87;37.85;99838.31;5093405;28;20056;-83
2022/03/22 03:19:45;;;;;;;7.82;3.58;;;;;;;4.38;39.96;99964.34;5092511;28;20431;-83
2022/03/22 03:22:16;;;;;;;10.05;3.72;;;;;;;3.93;40.38;99937.44;5092691;28;20052;-84
2022/03/22 03:24:49;;;;;;;9.65;3.70;;;;;;;3.83;41.94;99975.28;5091257;28;20040;-83
2022/03/22 03:27:22;;;;;;;7.43;3.10;;;;;;;3.15;44.93;99958.41;5088504;28;20048;-83
2022/03/22 03:29:52;;;;;;;13.98;4.15;;;;;;;3.14;46.01;99977.31;5093429;28;20344;-83
2022/03/22 03:32:23;;;;;;;16.35;4.75;;;;;;;3.13;44.84;99975.59;5095799;28;20279;-83
2022/03/22 03:34:54;;;;;;;6.50;3.45;;;;;;;3.64;44.27;99989.78;5098064;28;20347;-83
2022/03/22 03:37:27;;;;;;;10.10;4.50;;;;;;;3.96;43.50;99986.56;5091654;28;20059;-83
2022/03/22 03:40:00;;;;;;;7.40;4.10;;;;;;;4.18;40.39;99980.66;5094862;28;20117;-84
2022/03/22 03:42:31;;;;;;;9.75;4.85;;;;;;;4.03;43.68;99977.97;5096129;28;20112;-83
2022/03/22 03:47:49;;;;;;;10.27;4.30;;;;;;;3.34;42.53;99986.09;5094614;28;20404;-83
2022/03/22 03:50:20;;;;;;;9.90;3.25;;;;;;;2.99;42.35;99983.19;5094546;28;20040;-83
2022/03/22 03:52:50;;;;;;;7.28;3.30;;;;;;;3.25;42.95;99975.72;5101459;28;20382;-84
2022/03/22 03:55:23;;;;;;;7.78;3.55;;;;;;;3.59;41.20;99975.97;5102214;28;20051;-84
2022/03/22 03:57:54;;;;;;;7.55;4.03;;;;;;;3.38;41.50;99956.88;5099930;28;20048;-84
2022/03/22 04:00:25;;;;;;;8.05;3.22;;;;;;;3.60;40.69;99975.13;5109692;28;20033;-84
2022/03/22 04:02:56;;;;;;;11.00;3.40;;;;;;;3.45;40.51;99973.28;5108223;28;20037;-84
2022/03/22 04:05:27;;;;;;;7.70;2.92;;;;;;;3.67;41.26;99976.91;5104428;28;20028;-83
2022/03/22 04:07:58;;;;;;;5.43;3.03;;;;;;;3.65;39.96;99956.22;5106428;28;20028;-83
2022/03/22 04:10:30;;;;;;;8.98;4.13;;;;;;;3.87;40.24;99962.38;5106884;28;20052;-83
2022/03/22 04:13:01;;;;;;;12.75;3.60;;;;;;;3.99;38.38;99982.25;5107720;28;20056;-84
2022/03/22 04:15:35;;;;;;;7.13;2.78;;;;;;;3.93;40.42;99976.19;5105397;28;20043;-83
2022/03/22 04:18:06;;;;;;;5.80;2.95;;;;;;;3.86;40.02;99975.28;5105655;28;20040;-84
2022/03/22 04:20:37;;;;;;;8.07;3.05;;;;;;;3.76;40.02;99969.19;5107193;28;20036;-83
2022/03/22 04:23:09;;;;;;;5.88;2.90;;;;;;;3.97;41.24;99967.59;5107295;28;20303;-82
2022/03/22 04:25:41;;;;;;;6.80;2.78;;;;;;;4.16;40.30;99964.25;5095698;28;20086;-82
2022/03/22 04:33:47;;;;;;;4.60;2.47;;;;;;;4.27;40.46;99961.72;5095414;28;20052;-82
2022/03/22 04:36:18;;;;;;;5.57;2.67;;;;;;;4.28;40.75;99972.06;5096783;28;20273;-82
2022/03/22 04:38:49;;;;;;;7.15;2.53;;;;;;;4.20;40.24;99966.00;5100922;28;20047;-82
2022/03/22 04:41:23;;;;;;;5.28;2.70;;;;;;;3.95;39.02;99966.75;5096207;28;20047;-82
2022/03/22 04:43:54;;;;;;;4.05;2.42;;;;;;;3.81;39.06;99971.81;5098945;28;20134;-82
2022/03/22 04:46:25;;;;;;;8.73;2.90;;;;;;;3.70;39.44;99964.00;5089539;28;20052;-82
2022/03/22 04:48:57;;;;;;;6.70;3.80;;;;;;;3.38;37.98;99977.53;5090617;28;20067;-82
2022/03/22 04:57:05;;;;;;;8.35;2.65;;;;;;;3.21;38.61;99994.59;5093812;28;20055;-82
2022/03/22 04:59:36;;;;;;;8.52;2.40;;;;;;;3.25;40.02;100006.69;5089582;28;20082;-83
2022/03/22 05:02:07;;;;;;;12.65;2.60;;;;;;;3.30;38.34;100010.19;5093168;28;20075;-83
2022/03/22 05:04:38;;;;;;;5.15;2.75;;;;;;;3.33;39.50;100020.53;5090954;28;20078;-83
2022/03/22 05:07:09;;;;;;;12.70;3.15;;;;;;;3.16;40.25;100002.28;5098936;28;20048;-83
2022/03/22 05:09:40;;;;;;;5.13;2.40;;;;;;;3.38;37.55;100007.66;5091924;28;20067;-85
2022/03/22 05:12:13;;;;;;;8.27;3.28;;;;;;;3.45;39.67;100015.47;5092069;28;20079;-84
2022/03/22 05:14:47;;;;;;;6.57;2.90;;;;;;;3.43;39.40;100014.59;5088902;28;20053;-84
2022/03/22 05:17:21;;;;;;;6.70;2.60;;;;;;;3.13;38.17;100014.31;5097511;28;20520;-85
2022/03/22 05:19:52;;;;;;;9.98;3.10;;;;;;;3.13;40.43;100016.91;5093903;28;20044;-83
2022/03/22 05:22:23;;;;;;;5.90;2.50;;;;;;;3.11;37.61;100013.44;5090492;28;20083;-81
2022/03/22 05:24:58;;;;;;;7.00;2.55;;;;;;;3.06;36.90;100007.38;5089310;28;20340;-81
2022/03/22 05:27:30;;;;;;;6.00;2.10;;;;;;;2.78;37.71;100015.69;5094931;28;20116;-83
2022/03/22 05:30:01;;;;;;;8.57;2.22;;;;;;;2.53;38.64;100018.81;5093168;28;20056;-84
2022/03/22 05:32:32;;;;;;;9.85;2.38;;;;;;;2.35;39.50;100024.63;5090998;28;20071;-82
2022/03/22 05:35:09;;;;;;;4.10;2.20;;;;;;;2.05;38.63;100005.31;5094823;28;20040;-83
2022/03/22 05:37:56;;;;;;;4.43;2.25;;;;;;;1.97;39.34;100016.34;5097203;28;20056;-84
2022/03/22 05:40:27;;;;;;;7.32;2.85;;;;;;;2.11;39.99;100033.75;5095698;28;20066;-81
2022/03/22 05:43:00;;;;;;;5.63;2.47;;;;;;;2.10;39.51;100024.28;5087650;28;20044;-82
2022/03/22 05:45:32;;;;;;;4.22;2.40;;;;;;;1.97;37.85;100012.06;5089304;28;20051;-82
2022/03/22 05:48:02;;;;;;;5.80;2.58;;;;;;;1.98;39.40;100036.13;5082315;28;20052;-82
2022/03/22 05:50:33;;;;;;;4.95;2.40;;;;;;;1.66;39.29;100021.91;5087803;28;20108;-82
2022/03/22 05:53:04;;;;;;;3.83;2.38;;;;;;;1.56;39.76;100040.63;5090892;28;20051;-82
2022/03/22 05:55:35;;;;;;;4.97;2.30;;;;;;;1.39;39.84;100021.47;5086716;28;20059;-82
2022/03/22 05:58:08;;;;;;;12.00;2.70;;;;;;;1.40;39.15;100038.63;5098943;28;20363;-82
2022/03/22 06:00:39;;;;;;;4.88;2.03;;;;;;;1.13;40.37;100006.44;5092144;28;20048;-82
2022/03/22 06:03:10;;;;;;;5.85;2.47;;;;;;;1.37;40.68;100033.44;5088328;28;20449;-82
2022/03/22 06:05:42;;;;;;;5.05;3.00;;;;;;;1.31;41.01;100023.03;5095731;28;20052;-81
2022/03/22 06:08:13;;;;;;;5.28;2.20;;;;;;;1.56;39.84;100039.78;5101684;28;20079;-82
2022/03/22 06:10:43;;;;;;;5.30;2.47;;;;;;;1.56;40.51;100030.34;5097787;28;20251;-81
2022/03/22 06:13:16;;;;;;;5.28;2.58;;;;;;;1.80;40.81;100044.44;5085282;28;20076;-81
2022/03/22 06:15:52;;;;;;;6.13;2.42;;;;;;;1.88;40.33;100038.56;5087131;28;20044;-81
2022/03/22 06:18:23;;;;;;;7.28;2.40;;;;;;;1.78;40.09;100022.97;5081454;28;20076;-81
2022/03/22 06:20:53;;;;;;;5.63;2.25;;;;;;;1.93;41.24;100047.22;5090694;28;20055;-82
2022/03/22 06:23:24;;;;;;;5.68;2.50;;;;;;;1.99;41.49;100061.06;5094276;28;20487;-80
2022/03/22 06:25:55;;;;;;;9.93;2.75;;;;;;;1.78;40.93;100056.44;5098442;28;20052;-80
2022/03/22 06:28:27;;;;;;;5.60;2.38;;;;;;;1.51;41.13;100048.28;5088241;28;20060;-81
2022/03/22 06:30:58;;;;;;;8.70;3.05;;;;;;;1.47;41.52;100050.78;5101071;28;20324;-81
2022/03/22 06:33:29;;;;;;;10.45;3.65;;;;;;;1.35;41.54;100045.41;5084770;28;20044;-81
2022/03/22 06:36:00;;;;;;;7.68;2.95;;;;;;;1.38;41.16;100045.47;5088953;28;20040;-81
2022/03/22 06:38:32;;;;;;;7.82;3.15;;;;;;;0.78;41.16;99947.50;5104197;28;20067;-81
2022/03/22 06:41:03;;;;;;;8.77;2.42;;;;;;;1.52;42.49;100054.28;5090838;28;20104;-81
2022/03/22 06:43:38;;;;;;;4.55;2.30;;;;;;;1.57;40.67;100056.94;5089093;28;20044;-81
2022/03/22 06:46:09;;;;;;;7.55;2.53;;;;;;;1.55;40.79;100050.91;5094123;28;20047;-81
2022/03/22 06:48:40;;;;;;;5.07;2.50;;;;;;;1.42;40.19;100067.84;5087918;28;20268;-81
2022/03/22 06:51:10;;;;;;;6.72;2.22;;;;;;;1.40;42.29;100069.53;5092706;28;20064;-81
2022/03/22 06:53:41;;;;;;;3.47;2.22;;;;;;;1.20;41.23;100046.91;5101108;28;20059;-81
2022/03/22 06:56:15;;;;;;;4.47;2.00;;;;;;;1.19;40.51;100070.88;5093304;28;20106;-82
2022/03/22 06:58:50;;;;;;;4.68;2.00;;;;;;;0.96;40.79;100061.88;5101459;28;20075;-82
2022/03/22 07:01:21;;;;;;;2.53;1.70;;;;;;;0.81;40.57;100063.31;5088225;28;20047;-82
2022/03/22 07:03:52;;;;;;;8.30;2.10;;;;;;;0.69;39.80;100062.19;5096564;28;20063;-83
2022/03/22 07:06:25;;;;;;;5.18;2.10;;;;;;;0.58;39.52;100059.41;5101683;28;20048;-82
2022/03/22 07:08:56;;;;;;;5.88;2.20;;;;;;;0.68;39.95;100076.75;5104656;28;20162;-82
2022/03/22 07:14:16;;;;;;;5.63;1.80;;;;;;;0.62;38.98;100067.22;5087245;28;20045;-81
2022/03/22 07:16:47;;;;;;;3.63;1.80;;;;;;;0.59;39.27;100068.84;5091774;28;20292;-82
2022/03/22 07:19:18;;;;;;;4.75;2.20;;;;;;;0.53;40.15;100071.31;5095612;28;20094;-82
2022/03/22 07:21:49;;;;;;;5.40;2.08;;;;;;;0.57;41.17;100073.09;5097307;28;20040;-81
2022/03/22 07:24:20;;;;;;;4.03;2.33;;;;;;;0.64;42.19;100087.81;5085880;28;20108;-81
2022/03/22 07:26:51;;;;;;;5.03;2.47;;;;;;;0.56;42.04;100081.66;5099312;28;20055;-82
2022/03/22 07:29:24;;;;;;;5.68;2.00;;;;;;;0.42;41.15;100077.09;5092069;28;20107;-82
2022/03/22 07:31:56;;;;;;;4.93;2.60;;;;;;;0.40;41.24;100076.19;5098621;28;20104;-81
2022/03/22 07:34:28;;;;;;;5.75;2.13;;;;;;;0.42;42.05;100084.81;5097302;28;20044;-82
2022/03/22 07:36:58;;;;;;;5.20;2.33;;;;;;;0.03;43.06;100038.53;5096548;28;20048;-87
2022/03/22 07:39:33;;;;;;;4.10;1.95;;;;;;;0.05;42.94;100061.66;5091785;28;20297;-89
2022/03/22 07:42:04;;;;;;;6.07;2.05;;;;;;;-0.12;42.80;100062.16;5099805;28;20270;-85
2022/03/22 07:44:39;;;;;;;9.05;2.50;;;;;;;-0.25;43.47;100037.91;5098392;28;20041;-86
2022/03/22 07:47:11;;;;;;;2.63;2.13;;;;;;;0.00;42.72;100064.16;5100358;28;20232;-85
2022/03/22 07:55:16;;;;;;;3.75;1.80;;;;;;;-0.20;43.52;100070.50;5100125;28;20070;-83
2022/03/22 07:57:47;;;;;;;6.05;2.05;;;;;;;-0.35;44.15;100060.72;5092248;28;20040;-89
2022/03/22 08:00:20;;;;;;;4.78;2.35;;;;;;;-0.39;44.03;100074.34;5089786;28;20606;-92
2022/03/22 08:02:56;;;;;;;9.05;2.75;;;;;;;-0.58;44.93;100062.72;5098825;28;20066;-87
2022/03/22 08:05:28;;;;;;;7.80;2.80;;;;;;;-0.60;44.71;100079.78;5094933;28;20104;-88
2022/03/22 08:07:59;;;;;;;5.47;2.85;;;;;;;-0.67;44.36;100078.78;5096001;28;20052;-87
2022/03/22 08:10:50;;;;;;;3.15;2.03;;;;;;;-0.87;44.63;100045.75;5089015;28;20045;-91
2022/03/22 08:13:21;;;;;;;4.75;2.17;;;;;;;-0.82;45.16;100071.53;5095792;28;20039;-88
2022/03/22 08:15:53;;;;;;;3.53;2.00;;;;;;;-0.83;44.89;100074.91;5096153;28;20052;-91
2022/03/22 08:18:24;;;;;;;6.40;2.22;;;;;;;-0.91;45.73;100079.84;5096926;28;20332;-90
2022/03/22 08:20:55;;;;;;;4.50;2.05;;;;;;;-0.97;45.80;100094.22;5097419;28;20104;-91
2022/03/22 08:23:26;;;;;;;4.47;2.05;;;;;;;-1.09;46.93;100074.22;5096439;28;20115;-91
2022/03/22 08:25:57;;;;;;;5.80;2.35;;;;;;;-1.04;46.15;100093.19;5087340;28;20040;-91
2022/03/22 08:28:30;;;;;;;3.13;2.28;;;;;;;-1.14;45.65;100089.47;5095734;28;20331;-91
2022/03/22 08:31:03;;;;;;;3.85;2.28;;;;;;;-1.23;46.66;100096.91;5095538;28;20075;-91
2022/03/22 08:33:33;;;;;;;8.27;2.83;;;;;;;-1.32;47.27;100076.16;5096544;28;20107;-91
2022/03/22 08:36:05;;;;;;;5.35;2.83;;;;;;;-1.29;47.41;100085.63;5086876;28;20049;-88
2022/03/22 08:38:36;;;;;;;6.50;2.60;;;;;;;-1.30;47.38;100089.88;5089053;28;20228;-85
2022/03/22 08:41:07;;;;;;;5.97;2.67;;;;;;;-1.39;47.55;100085.34;5089134;28;20044;-86
2022/03/22 08:43:37;;;;;;;4.38;1.92;;;;;;;-1.48;48.61;100090.22;5095324;28;20047;-86
2022/03/22 08:46:14;;;;;;;7.20;2.58;;;;;;;-1.49;48.97;100098.72;5102045;28;20279;-90
2022/03/22 08:48:44;;;;;;;4.30;2.70;;;;;;;-1.52;48.98;100108.91;5102957;28;20283;-82
2022/03/22 08:51:16;;;;;;;13.73;4.68;;;;;;;-1.55;50.25;100103.66;5095227;28;20116;-84
2022/03/22 08:53:52;;;;;;;27.80;5.45;;;;;;;-2.02;49.21;100028.81;5093646;28;20107;-86
2022/03/22 08:56:28;;;;;;;14.35;4.75;;;;;;;-1.69;49.98;100089.59;5090469;28;20044;-86
2022/03/22 08:59:13;;;;;;;;;;;;;;;;;;;;;
2022/03/22 09:08:34;;;;;;;8.10;3.33;;;;;;;-2.57;50.67;99956.34;5082181;28;20044;-81
2022/03/22 09:11:16;;;;;;;24.17;7.90;;;;;;;-1.52;50.53;100129.41;5095498;28;20048;-84
2022/03/22 09:13:47;;;;;;;14.68;4.68;;;;;;;-2.01;49.20;100043.38;5088166;28;20053;-81
2022/03/22 09:16:21;;;;;;;28.20;9.68;;;;;;;-2.33;50.67;100025.31;5097313;28;20344;-83
2022/03/22 09:18:59;;;;;;;52.92;18.90;;;;;;;-1.59;51.63;100140.28;5099838;28;20044;-84
2022/03/22 09:21:40;;;;;;;31.05;11.82;;;;;;;-1.56;51.24;100142.94;5092357;28;20103;-85
2022/03/22 09:24:54;;;;;;;24.92;8.07;;;;;;;-2.00;51.43;100078.38;5021719;28;20050;-85
2022/03/22 09:34:47;;;;;;;;;;;;;;;;;;;;;
2022/03/22 09:37:48;;;;;;;33.90;5.13;;;;;;;-1.80;51.89;100097.81;4916982;29;20134;-88
2022/03/22 09:40:23;;;;;;;10.20;3.95;;;;;;;-1.77;51.22;100090.22;4919712;29;20051;-81
2022/03/22 09:42:55;;;;;;;14.48;4.47;;;;;;;-2.07;52.29;100044.06;4911946;29;20336;-82
2022/03/22 09:45:29;;;;;;;20.83;4.07;;;;;;;-1.37;51.80;100170.84;4911563;29;20080;-80
2022/03/22 09:48:01;;;;;;;11.93;4.05;;;;;;;-1.32;51.13;100142.81;4987472;28;20470;-82
2022/03/22 09:53:43;;;;;;;8.15;3.60;;;;;;;-2.29;51.85;100009.25;4992565;28;20077;-87
2022/03/22 09:56:21;;;;;;;7.53;3.13;;;;;;;-1.69;51.87;100081.91;4995587;28;20062;-89
2022/03/22 09:58:54;;;;;;;6.95;3.30;;;;;;;-1.35;52.32;100140.13;5000153;28;20047;-81
2022/03/22 10:01:25;;;;;;;8.13;3.22;;;;;;;-1.99;52.28;100055.41;5090867;28;20315;-81
2022/03/22 10:04:12;;;;;;;11.18;4.88;;;;;;;-1.99;52.46;100039.19;5089335;28;20083;-84
2022/03/22 10:07:06;;;;;;;8.07;3.80;;;;;;;-1.70;52.07;100078.44;5089357;28;20402;-87
2022/03/22 10:09:44;;;;;;;7.88;3.50;;;;;;;-1.38;52.53;100128.09;5087970;28;20347;-83
2022/03/22 10:12:15;;;;;;;7.00;3.50;;;;;;;-1.26;52.08;100131.84;5092083;28;20048;-83
2022/03/22 10:14:45;;;;;;;8.18;3.17;;;;;;;-1.22;52.07;100134.56;5085878;28;20044;-83
2022/03/22 10:17:18;;;;;;;6.35;3.22;;;;;;;-1.78;51.68;100047.47;5086622;28;20291;-83
2022/03/22 10:19:51;;;;;;;22.10;4.80;;;;;;;-1.42;52.30;100094.63;5090492;28;20078;-83
2022/03/22 10:22:27;;;;;;;15.40;3.88;;;;;;;-1.28;52.17;100118.13;5088635;28;20104;-83
2022/03/22 10:25:01;;;;;;;7.47;3.47;;;;;;;-1.44;52.48;100081.78;5092614;28;20639;-83
2022/03/22 10:27:33;;;;;;;8.18;3.83;;;;;;;-1.09;52.46;100125.53;5092057;28;20100;-82
2022/03/22 10:30:24;;;;;;;6.20;3.20;;;;;;;-1.19;52.39;100124.38;5090246;28;20053;-82
2022/03/22 10:32:54;;;;;;;9.65;3.65;;;;;;;-1.12;51.94;100131.44;5090125;28;20303;-82
2022/03/22 10:35:27;;;;;;;8.88;3.80;;;;;;;-1.17;52.42;100117.59;5093874;28;20103;-82
2022/03/22 10:38:01;;;;;;;9.93;3.10;;;;;;;-1.23;52.68;100111.44;5092305;28;20052;-83
2022/03/22 10:40:34;;;;;;;15.68;3.70;;;;;;;-1.02;52.45;100132.56;5092666;28;20047;-83
2022/03/22 10:43:06;;;;;;;7.28;3.15;;;;;;;-1.19;52.05;100103.00;5094028;28;20066;-83
2022/03/22 10:45:44;;;;;;;10.90;3.45;;;;;;;-1.20;52.30;100116.63;5091630;28;20040;-82
2022/03/22 10:48:19;;;;;;;9.05;2.85;;;;;;;-1.10;52.50;100134.91;5087767;28;20103;-82
2022/03/22 10:50:50;;;;;;;9.45;3.45;;;;;;;-1.14;52.86;100127.09;5092696;28;20083;-81
2022/03/22 10:53:25;;;;;;;5.03;2.70;;;;;;;-1.13;52.85;100133.94;5092732;28;20320;-80
2022/03/22 10:56:00;;;;;;;8.13;3.42;;;;;;;-1.16;52.96;100138.97;5083512;28;20052;-80
2022/03/22 10:58:34;;;;;;;9.75;3.35;;;;;;;-1.17;53.04;100137.25;5099111;28;20044;-82
2022/03/22 11:01:07;;;;;;;11.70;4.78;;;;;;;-1.29;53.27;100126.66;5098228;28;20271;-82
2022/03/22 11:03:39;;;;;;;9.10;3.78;;;;;;;-1.18;53.21;100140.63;5090797;28;20079;-80
2022/03/22 11:06:11;;;;;;;9.63;3.28;;;;;;;-1.19;53.91;100138.91;5096556;28;20117;-81
2022/03/22 11:08:44;;;;;;;8.07;3.45;;;;;;;-1.23;53.76;100131.94;5095502;28;20070;-81
2022/03/22 11:11:15;;;;;;;11.75;3.40;;;;;;;-1.37;54.54;100113.59;5093816;28;20166;-82
2022/03/22 11:13:47;;;;;;;8.65;3.63;;;;;;;-1.27;53.88;100119.84;5087020;28;20040;-80
2022/03/22 11:16:18;;;;;;;16.17;6.38;;;;;;;-1.50;54.51;100086.72;5101325;28;20496;-83
2022/03/22 11:18:51;;;;;;;14.70;7.07;;;;;;;-1.27;54.50;100132.66;5090837;28;20116;-83
2022/03/22 11:21:22;;;;;;;13.75;5.38;;;;;;;-1.23;54.69;100126.81;5094875;28;20048;-83
2022/03/22 11:24:05;;;;;;;13.23;5.13;;;;;;;-1.41;54.83;100094.69;5087328;28;20209;-82
2022/03/22 11:26:42;;;;;;;12.27;4.38;;;;;;;-1.31;55.00;100104.38;5085239;28;20050;-83
2022/03/22 11:29:14;;;;;;;18.25;5.80;;;;;;;-1.44;54.40;100055.31;5084224;28;20055;-83
2022/03/22 11:34:08;;;;;;;14.43;5.38;;;;;;;-1.08;54.63;100116.97;5084257;28;20120;-83
2022/03/22 11:34:35;;;;;;;12.52;6.00;;;;;;;-1.02;54.65;100122.31;5089760;28;20052;-83
2022/03/22 11:37:11;;;;;;;15.27;4.88;;;;;;;-1.03;54.51;100110.28;5093070;28;20051;-82
2022/03/22 11:42:53;;;;;;;9.13;4.65;;;;;;;-1.08;54.55;100091.34;5085169;28;20056;-83
2022/03/22 11:45:26;;;;;;;11.57;4.20;;;;;;;-0.86;54.68;100103.06;5087597;28;20045;-83
2022/03/22 11:47:57;;;;;;;11.65;4.55;;;;;;;-0.86;54.71;100105.63;5100427;28;20123;-83
2022/03/22 11:50:29;;;;;;;8.77;3.90;;;;;;;-0.90;54.63;100106.34;5101675;28;20071;-83
2022/03/22 11:53:01;;;;;;;10.20;4.30;;;;;;;-0.96;54.74;100094.25;5093055;28;20048;-83
2022/03/22 11:55:33;;;;;;;9.93;4.15;;;;;;;-0.90;54.65;100107.25;5089792;28;20332;-83
2022/03/22 11:58:09;;;;;;;13.13;3.97;;;;;;;-1.02;54.35;100090.63;5095739;28;20072;-83
2022/03/22 12:00:44;;;;;;;15.13;7.13;;;;;;;-1.01;54.65;100103.50;5104053;28;20055;-82
2022/03/22 12:03:16;;;;;;;57.72;26.33;;;;;;;-1.70;55.24;100000.75;5097704;28;20058;-81
2022/03/22 12:05:52;;;;;;;69.03;28.17;;;;;;;-1.14;55.68;100115.13;5092965;28;20052;-83
2022/03/22 12:08:26;;;;;;;19.95;8.32;;;;;;;-1.21;55.88;100120.03;5097145;28;20048;-83
2022/03/22 12:10:59;;;;;;;15.90;5.63;;;;;;;-1.26;56.10;100116.47;5091644;28;20044;-83
2022/03/22 12:13:30;;;;;;;136.55;47.55;;;;;;;-1.37;56.23;100113.59;5098398;28;20052;-83
2022/03/22 12:16:02;;;;;;;184.27;66.20;;;;;;;-1.40;56.96;100118.63;5092412;28;20119;-83
2022/03/22 12:18:34;;;;;;;21.05;9.07;;;;;;;-1.47;57.02;100125.28;5099264;28;20052;-83
2022/03/22 12:21:04;;;;;;;37.20;15.63;;;;;;;-1.67;57.38;100105.84;5098256;28;20048;-83
2022/03/22 12:23:36;;;;;;;17.15;8.23;;;;;;;-1.68;57.22;100107.56;5091420;28;20126;-83
2022/03/22 12:26:10;;;;;;;13.55;5.85;;;;;;;-1.60;57.04;100128.28;5084809;28;20112;-83
2022/03/22 12:28:48;;;;;;;60.45;25.00;;;;;;;-1.63;57.50;100141.00;5094201;28;20052;-83
2022/03/22 12:31:21;;;;;;;28.33;11.98;;;;;;;-1.71;57.86;100132.22;5099419;28;20048;-83
2022/03/22 12:33:52;;;;;;;16.05;7.18;;;;;;;-1.92;57.81;100097.44;5084727;28;20049;-82
2022/03/22 12:36:23;;;;;;;14.95;6.30;;;;;;;-1.75;57.79;100134.69;5091809;28;20078;-83
2022/03/22 12:38:54;;;;;;;12.63;6.13;;;;;;;-1.76;58.25;100127.81;5088208;28;20356;-82
2022/03/22 12:41:26;;;;;;;11.27;4.95;;;;;;;-1.83;58.63;100133.56;5090348;28;20048;-83
2022/03/22 12:43:57;;;;;;;106.97;38.80;;;;;;;-1.90;58.33;100131.63;5083992;28;20080;-83
2022/03/22 12:46:28;;;;;;;46.78;18.00;;;;;;;-1.91;58.41;100129.91;5089470;28;20437;-83
2022/03/22 12:48:59;;;;;;;17.90;7.60;;;;;;;-1.91;58.48;100145.25;5102046;28;20044;-83
2022/03/22 12:51:31;;;;;;;11.93;4.68;;;;;;;-1.94;58.18;100129.81;5083697;28;20056;-83